createdAt,value
2018-10-15T00:00:03.846Z,1004.25
2018-10-15T00:00:39.212Z,1004.23
2018-10-15T00:01:14.444Z,1004.27
2018-10-15T00:01:49.599Z,1004.26
2018-10-15T00:02:24.935Z,1004.29
2018-10-15T00:03:00.359Z,1004.27
2018-10-15T00:03:35.795Z,1004.27
2018-10-15T00:04:10.895Z,1004.26
2018-10-15T00:04:46.142Z,1004.26
2018-10-15T00:05:21.670Z,1004.27
2018-10-15T00:05:57.371Z,1004.28
2018-10-15T00:06:33.084Z,1004.29
2018-10-15T00:07:08.481Z,1004.29
2018-10-15T00:07:43.773Z,1004.31
2018-10-15T00:08:19.216Z,1004.29
2018-10-15T00:08:54.826Z,1004.32
2018-10-15T00:09:30.248Z,1004.26
2018-10-15T00:10:05.668Z,1004.27
2018-10-15T00:10:41.624Z,1004.27
2018-10-15T00:11:17.041Z,1004.23
2018-10-15T00:11:52.473Z,1004.27
2018-10-15T00:12:27.739Z,1004.26
2018-10-15T00:13:03.108Z,1004.30
2018-10-15T00:13:38.454Z,1004.29
2018-10-15T00:14:14.022Z,1004.28
2018-10-15T00:14:49.204Z,1004.29
2018-10-15T00:15:24.473Z,1004.27
2018-10-15T00:16:00.070Z,1004.29
2018-10-15T00:16:35.406Z,1004.31
2018-10-15T00:17:10.713Z,1004.32
2018-10-15T00:17:46.176Z,1004.29
2018-10-15T00:18:21.485Z,1004.29
2018-10-15T00:18:56.837Z,1004.29
2018-10-15T00:19:32.035Z,1004.29
2018-10-15T00:20:07.387Z,1004.30
2018-10-15T00:20:42.598Z,1004.31
2018-10-15T00:21:18.227Z,1004.32
2018-10-15T00:21:53.638Z,1004.31
2018-10-15T00:22:28.987Z,1004.33
2018-10-15T00:23:04.510Z,1004.29
2018-10-15T00:23:40.043Z,1004.30
2018-10-15T00:24:15.547Z,1004.30
2018-10-15T00:24:50.681Z,1004.32
2018-10-15T00:25:26.319Z,1004.32
2018-10-15T00:26:01.986Z,1004.31
2018-10-15T00:26:37.123Z,1004.31
2018-10-15T00:27:12.376Z,1004.33
2018-10-15T00:27:47.791Z,1004.33
2018-10-15T00:28:23.094Z,1004.33
2018-10-15T00:28:58.451Z,1004.35
2018-10-15T00:29:33.592Z,1004.35
2018-10-15T00:30:09.003Z,1004.37
2018-10-15T00:30:44.701Z,1004.39
2018-10-15T00:31:20.159Z,1004.36
2018-10-15T00:31:55.815Z,1004.37
2018-10-15T00:32:31.408Z,1004.40
2018-10-15T00:33:06.743Z,1004.36
2018-10-15T00:33:42.360Z,1004.36
2018-10-15T00:34:17.746Z,1004.35
2018-10-15T00:34:52.933Z,1004.41
2018-10-15T00:35:28.378Z,1004.35
2018-10-15T00:36:03.539Z,1004.36
2018-10-15T00:36:38.945Z,1004.37
2018-10-15T00:37:14.469Z,1004.38
2018-10-15T00:37:49.858Z,1004.37
2018-10-15T00:38:25.186Z,1004.36
2018-10-15T00:39:00.526Z,1004.38
2018-10-15T00:39:35.897Z,1004.33
2018-10-15T00:40:11.235Z,1004.34
2018-10-15T00:40:46.381Z,1004.35
2018-10-15T00:41:21.746Z,1004.36
2018-10-15T00:41:57.094Z,1004.33
2018-10-15T00:42:32.552Z,1004.32
2018-10-15T00:43:07.955Z,1004.33
2018-10-15T00:43:43.285Z,1004.37
2018-10-15T00:44:18.700Z,1004.34
2018-10-15T00:44:54.328Z,1004.35
2018-10-15T00:45:30.070Z,1004.33
2018-10-15T00:46:05.494Z,1004.33
2018-10-15T00:46:40.743Z,1004.34
2018-10-15T00:47:16.175Z,1004.35
2018-10-15T00:47:51.395Z,1004.37
2018-10-15T00:48:26.729Z,1004.34
2018-10-15T00:49:02.450Z,1004.32
2018-10-15T00:49:37.499Z,1004.32
2018-10-15T00:50:12.849Z,1004.35
2018-10-15T00:50:48.469Z,1004.35
2018-10-15T00:51:23.761Z,1004.35
2018-10-15T00:51:58.997Z,1004.34
2018-10-15T00:52:34.591Z,1004.35
2018-10-15T00:53:10.008Z,1004.35
2018-10-15T00:53:45.603Z,1004.34
2018-10-15T00:54:20.962Z,1004.33
2018-10-15T00:54:56.188Z,1004.36
2018-10-15T00:55:31.610Z,1004.37
2018-10-15T00:56:07.025Z,1004.39
2018-10-15T00:56:42.559Z,1004.37
2018-10-15T00:57:18.084Z,1004.39
2018-10-15T00:57:53.395Z,1004.34
2018-10-15T00:58:28.827Z,1004.41
2018-10-15T00:59:04.367Z,1004.40
2018-10-15T00:59:39.408Z,1004.43
2018-10-15T01:00:14.969Z,1004.40
2018-10-15T01:00:50.317Z,1004.40
2018-10-15T01:01:25.720Z,1004.43
2018-10-15T01:02:01.090Z,1004.45
2018-10-15T01:02:36.725Z,1004.46
2018-10-15T01:03:11.984Z,1004.44
2018-10-15T01:03:47.177Z,1004.47
2018-10-15T01:04:22.332Z,1004.45
2018-10-15T01:04:57.693Z,1004.47
2018-10-15T01:05:33.157Z,1004.39
2018-10-15T01:06:08.319Z,1004.42
2018-10-15T01:06:43.618Z,1004.44
2018-10-15T01:07:18.933Z,1004.43
2018-10-15T01:07:54.277Z,1004.40
2018-10-15T01:08:29.593Z,1004.39
2018-10-15T01:09:05.135Z,1004.43
2018-10-15T01:09:40.540Z,1004.46
2018-10-15T01:10:15.775Z,1004.45
2018-10-15T01:10:51.542Z,1004.45
2018-10-15T01:11:26.659Z,1004.43
2018-10-15T01:12:01.990Z,1004.43
2018-10-15T01:12:37.340Z,1004.43
2018-10-15T01:13:12.773Z,1004.48
2018-10-15T01:13:48.236Z,1004.46
2018-10-15T01:14:23.433Z,1004.44
2018-10-15T01:14:58.754Z,1004.43
2018-10-15T01:15:34.258Z,1004.47
2018-10-15T01:16:09.483Z,1004.44
2018-10-15T01:16:46.256Z,1004.43
2018-10-15T01:17:21.536Z,1004.43
2018-10-15T01:17:57.196Z,1004.43
2018-10-15T01:18:34.592Z,1004.44
2018-10-15T01:19:10.107Z,1004.44
2018-10-15T01:19:45.657Z,1004.41
2018-10-15T01:20:21.276Z,1004.41
2018-10-15T01:20:56.499Z,1004.42
2018-10-15T01:21:31.916Z,1004.40
2018-10-15T01:22:07.035Z,1004.40
2018-10-15T01:22:42.561Z,1004.42
2018-10-15T01:23:17.800Z,1004.43
2018-10-15T01:23:53.109Z,1004.41
2018-10-15T01:24:28.484Z,1004.43
2018-10-15T01:25:03.803Z,1004.44
2018-10-15T01:25:39.152Z,1004.44
2018-10-15T01:26:14.689Z,1004.43
2018-10-15T01:26:50.155Z,1004.45
2018-10-15T01:27:25.705Z,1004.41
2018-10-15T01:28:01.214Z,1004.46
2018-10-15T01:28:36.254Z,1004.44
2018-10-15T01:29:11.672Z,1004.47
2018-10-15T01:29:47.012Z,1004.45
2018-10-15T01:30:22.410Z,1004.43
2018-10-15T01:30:58.031Z,1004.45
2018-10-15T01:31:33.364Z,1004.46
2018-10-15T01:32:08.843Z,1004.44
2018-10-15T01:32:44.288Z,1004.44
2018-10-15T01:33:19.482Z,1004.40
2018-10-15T01:33:54.716Z,1004.42
2018-10-15T01:34:30.044Z,1004.41
2018-10-15T01:35:05.305Z,1004.43
2018-10-15T01:35:41.033Z,1004.39
2018-10-15T01:36:16.394Z,1004.42
2018-10-15T01:36:52.002Z,1004.41
2018-10-15T01:37:27.196Z,1004.41
2018-10-15T01:38:03.416Z,1004.41
2018-10-15T01:38:38.717Z,1004.43
2018-10-15T01:39:14.244Z,1004.42
2018-10-15T01:39:50.177Z,1004.45
2018-10-15T01:40:25.811Z,1004.43
2018-10-15T01:41:01.164Z,1004.41
2018-10-15T01:41:36.539Z,1004.42
2018-10-15T01:42:11.840Z,1004.39
2018-10-15T01:42:47.200Z,1004.44
2018-10-15T01:43:22.577Z,1004.45
2018-10-15T01:43:57.889Z,1004.40
2018-10-15T01:44:33.155Z,1004.40
2018-10-15T01:45:08.787Z,1004.41
2018-10-15T01:45:44.327Z,1004.42
2018-10-15T01:46:19.865Z,1004.45
2018-10-15T01:46:54.809Z,1004.43
2018-10-15T01:47:30.147Z,1004.50
2018-10-15T01:48:05.514Z,1004.45
2018-10-15T01:48:40.979Z,1004.43
2018-10-15T01:49:16.629Z,1004.45
2018-10-15T01:49:51.957Z,1004.44
2018-10-15T01:50:27.276Z,1004.42
2018-10-15T01:51:02.518Z,1004.45
2018-10-15T01:51:37.634Z,1004.43
2018-10-15T01:52:12.901Z,1004.46
2018-10-15T01:52:48.521Z,1004.44
2018-10-15T01:53:24.114Z,1004.44
2018-10-15T01:53:59.541Z,1004.45
2018-10-15T01:54:35.188Z,1004.47
2018-10-15T01:55:10.631Z,1004.46
2018-10-15T01:55:46.171Z,1004.46
2018-10-15T01:56:21.604Z,1004.47
2018-10-15T01:56:56.625Z,1004.48
2018-10-15T01:57:32.403Z,1004.42
2018-10-15T01:58:07.719Z,1004.45
2018-10-15T01:58:43.126Z,1004.45
2018-10-15T01:59:18.316Z,1004.48
2018-10-15T01:59:53.666Z,1004.46
2018-10-15T02:00:29.089Z,1004.44
2018-10-15T02:01:04.373Z,1004.42
2018-10-15T02:01:39.962Z,1004.45
2018-10-15T02:02:15.609Z,1004.46
2018-10-15T02:02:50.940Z,1004.43
2018-10-15T02:03:26.217Z,1004.44
2018-10-15T02:04:01.403Z,1004.47
2018-10-15T02:04:36.728Z,1004.46
2018-10-15T02:05:11.928Z,1004.47
2018-10-15T02:05:47.296Z,1004.48
2018-10-15T02:06:22.834Z,1004.49
2018-10-15T02:06:58.096Z,1004.50
2018-10-15T02:07:33.539Z,1004.50
2018-10-15T02:08:08.917Z,1004.49
2018-10-15T02:08:44.037Z,1004.51
2018-10-15T02:09:19.728Z,1004.51
2018-10-15T02:09:55.058Z,1004.50
2018-10-15T02:10:30.904Z,1004.47
2018-10-15T02:11:06.323Z,1004.51
2018-10-15T02:11:41.725Z,1004.50
2018-10-15T02:12:17.086Z,1004.46
2018-10-15T02:12:52.448Z,1004.48
2018-10-15T02:13:27.925Z,1004.49
2018-10-15T02:14:03.424Z,1004.49
2018-10-15T02:14:39.003Z,1004.46
2018-10-15T02:15:14.517Z,1004.49
2018-10-15T02:15:50.073Z,1004.44
2018-10-15T02:16:25.448Z,1004.50
2018-10-15T02:17:00.784Z,1004.48
2018-10-15T02:17:36.238Z,1004.48
2018-10-15T02:18:11.878Z,1004.50
2018-10-15T02:18:47.211Z,1004.51
2018-10-15T02:19:22.732Z,1004.49
2018-10-15T02:19:58.064Z,1004.50
2018-10-15T02:20:33.592Z,1004.50
2018-10-15T02:21:08.917Z,1004.48
2018-10-15T02:21:44.276Z,1004.48
2018-10-15T02:22:19.577Z,1004.47
2018-10-15T02:22:54.923Z,1004.43
2018-10-15T02:23:30.374Z,1004.39
2018-10-15T02:24:05.685Z,1004.43
2018-10-15T02:24:41.139Z,1004.45
2018-10-15T02:25:16.354Z,1004.43
2018-10-15T02:25:52.001Z,1004.40
2018-10-15T02:26:27.432Z,1004.46
2018-10-15T02:27:02.979Z,1004.43
2018-10-15T02:27:38.309Z,1004.38
2018-10-15T02:28:13.738Z,1004.41
2018-10-15T02:28:49.225Z,1004.40
2018-10-15T02:29:24.766Z,1004.41
2018-10-15T02:29:59.999Z,1004.37
2018-10-15T02:30:35.443Z,1004.36
2018-10-15T02:31:10.989Z,1004.40
2018-10-15T02:31:46.456Z,1004.38
2018-10-15T02:32:21.807Z,1004.40
2018-10-15T02:32:57.354Z,1004.35
2018-10-15T02:33:32.750Z,1004.36
2018-10-15T02:34:08.081Z,1004.37
2018-10-15T02:34:43.645Z,1004.36
2018-10-15T02:35:18.980Z,1004.32
2018-10-15T02:35:54.216Z,1004.38
2018-10-15T02:36:29.575Z,1004.36
2018-10-15T02:37:04.810Z,1004.37
2018-10-15T02:37:40.138Z,1004.39
2018-10-15T02:38:15.644Z,1004.39
2018-10-15T02:38:50.906Z,1004.38
2018-10-15T02:39:26.174Z,1004.38
2018-10-15T02:40:01.751Z,1004.40
2018-10-15T02:40:39.378Z,1004.36
2018-10-15T02:41:15.032Z,1004.35
2018-10-15T02:41:50.803Z,1004.39
2018-10-15T02:42:25.840Z,1004.37
2018-10-15T02:43:01.824Z,1004.38
2018-10-15T02:43:37.144Z,1004.36
2018-10-15T02:44:12.502Z,1004.36
2018-10-15T02:44:48.032Z,1004.38
2018-10-15T02:45:23.453Z,1004.39
2018-10-15T02:45:58.779Z,1004.41
2018-10-15T02:46:34.023Z,1004.40
2018-10-15T02:47:09.201Z,1004.38
2018-10-15T02:47:44.454Z,1004.39
2018-10-15T02:48:19.882Z,1004.39
2018-10-15T02:48:55.140Z,1004.42
2018-10-15T02:49:30.175Z,1004.46
2018-10-15T02:50:05.637Z,1004.43
2018-10-15T02:50:40.935Z,1004.47
2018-10-15T02:51:16.284Z,1004.49
2018-10-15T02:51:51.656Z,1004.45
2018-10-15T02:52:27.075Z,1004.44
2018-10-15T02:53:02.535Z,1004.47
2018-10-15T02:53:38.065Z,1004.45
2018-10-15T02:54:13.319Z,1004.48
2018-10-15T02:54:48.568Z,1004.46
2018-10-15T02:55:24.269Z,1004.49
2018-10-15T02:55:59.911Z,1004.48
2018-10-15T02:56:35.238Z,1004.48
2018-10-15T02:57:10.676Z,1004.50
2018-10-15T02:57:46.332Z,1004.48
2018-10-15T02:58:21.654Z,1004.47
2018-10-15T02:58:56.913Z,1004.45
2018-10-15T02:59:32.426Z,1004.46
2018-10-15T03:00:08.190Z,1004.44
2018-10-15T03:00:43.634Z,1004.46
2018-10-15T03:01:19.179Z,1004.44
2018-10-15T03:01:54.621Z,1004.43
2018-10-15T03:02:29.825Z,1004.43
2018-10-15T03:03:05.380Z,1004.42
2018-10-15T03:03:40.880Z,1004.43
2018-10-15T03:04:16.407Z,1004.44
2018-10-15T03:04:51.645Z,1004.43
2018-10-15T03:05:26.973Z,1004.45
2018-10-15T03:06:02.324Z,1004.46
2018-10-15T03:06:38.065Z,1004.43
2018-10-15T03:07:13.591Z,1004.45
2018-10-15T03:07:49.231Z,1004.47
2018-10-15T03:08:24.441Z,1004.45
2018-10-15T03:08:59.693Z,1004.45
2018-10-15T03:09:34.944Z,1004.47
2018-10-15T03:10:09.960Z,1004.45
2018-10-15T03:10:45.166Z,1004.47
2018-10-15T03:11:20.542Z,1004.47
2018-10-15T03:11:55.684Z,1004.43
2018-10-15T03:12:31.104Z,1004.43
2018-10-15T03:13:06.567Z,1004.46
2018-10-15T03:13:41.782Z,1004.48
2018-10-15T03:14:17.154Z,1004.44
2018-10-15T03:14:52.374Z,1004.46
2018-10-15T03:15:27.778Z,1004.42
2018-10-15T03:16:03.136Z,1004.47
2018-10-15T03:16:38.597Z,1004.45
2018-10-15T03:17:14.145Z,1004.44
2018-10-15T03:17:49.560Z,1004.45
2018-10-15T03:18:24.793Z,1004.49
2018-10-15T03:19:00.320Z,1004.49
2018-10-15T03:19:35.744Z,1004.49
2018-10-15T03:20:11.025Z,1004.47
2018-10-15T03:20:46.426Z,1004.47
2018-10-15T03:21:21.981Z,1004.46
2018-10-15T03:21:57.647Z,1004.47
2018-10-15T03:22:32.968Z,1004.45
2018-10-15T03:23:08.621Z,1004.44
2018-10-15T03:23:44.306Z,1004.43
2018-10-15T03:24:19.752Z,1004.42
2018-10-15T03:24:55.200Z,1004.45
2018-10-15T03:25:30.811Z,1004.44
2018-10-15T03:26:06.086Z,1004.45
2018-10-15T03:26:41.538Z,1004.45
2018-10-15T03:27:16.770Z,1004.48
2018-10-15T03:27:52.031Z,1004.46
2018-10-15T03:28:27.147Z,1004.50
2018-10-15T03:29:02.397Z,1004.46
2018-10-15T03:29:38.034Z,1004.47
2018-10-15T03:30:13.473Z,1004.48
2018-10-15T03:30:48.897Z,1004.54
2018-10-15T03:31:24.391Z,1004.50
2018-10-15T03:31:59.844Z,1004.53
2018-10-15T03:32:35.446Z,1004.51
2018-10-15T03:33:10.990Z,1004.51
2018-10-15T03:33:46.208Z,1004.50
2018-10-15T03:34:21.659Z,1004.51
2018-10-15T03:34:56.946Z,1004.52
2018-10-15T03:35:32.155Z,1004.49
2018-10-15T03:36:07.696Z,1004.47
2018-10-15T03:36:43.139Z,1004.50
2018-10-15T03:37:18.587Z,1004.49
2018-10-15T03:37:54.029Z,1004.49
2018-10-15T03:38:29.634Z,1004.47
2018-10-15T03:39:05.079Z,1004.47
2018-10-15T03:39:40.308Z,1004.49
2018-10-15T03:40:15.753Z,1004.47
2018-10-15T03:40:51.068Z,1004.45
2018-10-15T03:41:26.648Z,1004.46
2018-10-15T03:42:01.784Z,1004.46
2018-10-15T03:42:37.106Z,1004.48
2018-10-15T03:43:12.865Z,1004.50
2018-10-15T03:43:48.165Z,1004.48
2018-10-15T03:44:23.629Z,1004.50
2018-10-15T03:44:59.204Z,1004.46
2018-10-15T03:45:34.335Z,1004.44
2018-10-15T03:46:09.924Z,1004.47
2018-10-15T03:46:45.383Z,1004.44
2018-10-15T03:47:21.029Z,1004.47
2018-10-15T03:47:56.370Z,1004.46
2018-10-15T03:48:31.396Z,1004.47
2018-10-15T03:49:06.636Z,1004.48
2018-10-15T03:49:41.763Z,1004.52
2018-10-15T03:50:17.131Z,1004.51
2018-10-15T03:50:52.373Z,1004.52
2018-10-15T03:51:27.845Z,1004.51
2018-10-15T03:52:03.302Z,1004.52
2018-10-15T03:52:38.720Z,1004.56
2018-10-15T03:53:14.452Z,1004.53
2018-10-15T03:53:49.999Z,1004.55
2018-10-15T03:54:25.228Z,1004.59
2018-10-15T03:55:00.587Z,1004.58
2018-10-15T03:55:36.015Z,1004.58
2018-10-15T03:56:11.367Z,1004.58
2018-10-15T03:56:46.723Z,1004.60
2018-10-15T03:57:21.967Z,1004.59
2018-10-15T03:57:57.310Z,1004.58
2018-10-15T03:58:33.020Z,1004.56
2018-10-15T03:59:08.340Z,1004.58
2018-10-15T03:59:43.749Z,1004.56
2018-10-15T04:00:19.292Z,1004.55
2018-10-15T04:00:54.536Z,1004.62
2018-10-15T04:01:29.966Z,1004.65
2018-10-15T04:02:05.201Z,1004.65
2018-10-15T04:02:41.005Z,1004.62
2018-10-15T04:03:16.389Z,1004.64
2018-10-15T04:03:51.629Z,1004.61
2018-10-15T04:04:27.054Z,1004.60
2018-10-15T04:05:02.507Z,1004.58
2018-10-15T04:05:37.925Z,1004.61
2018-10-15T04:06:13.193Z,1004.63
2018-10-15T04:06:48.736Z,1004.66
2018-10-15T04:07:24.512Z,1004.65
2018-10-15T04:08:00.054Z,1004.65
2018-10-15T04:08:35.714Z,1004.64
2018-10-15T04:09:11.019Z,1004.65
2018-10-15T04:09:46.557Z,1004.68
2018-10-15T04:10:22.017Z,1004.67
2018-10-15T04:10:57.484Z,1004.69
2018-10-15T04:11:33.322Z,1004.69
2018-10-15T04:12:08.773Z,1004.72
2018-10-15T04:12:44.086Z,1004.72
2018-10-15T04:13:19.546Z,1004.75
2018-10-15T04:13:55.107Z,1004.75
2018-10-15T04:14:30.786Z,1004.74
2018-10-15T04:15:06.360Z,1004.73
2018-10-15T04:15:42.002Z,1004.77
2018-10-15T04:16:17.368Z,1004.74
2018-10-15T04:16:52.721Z,1004.74
2018-10-15T04:17:27.965Z,1004.74
2018-10-15T04:18:03.725Z,1004.77
2018-10-15T04:18:39.143Z,1004.73
2018-10-15T04:19:14.704Z,1004.78
2018-10-15T04:19:50.165Z,1004.75
2018-10-15T04:20:25.834Z,1004.77
2018-10-15T04:21:01.352Z,1004.78
2018-10-15T04:21:36.676Z,1004.78
2018-10-15T04:22:12.155Z,1004.78
2018-10-15T04:22:47.484Z,1004.76
2018-10-15T04:23:23.135Z,1004.78
2018-10-15T04:23:58.437Z,1004.78
2018-10-15T04:24:33.966Z,1004.79
2018-10-15T04:25:09.394Z,1004.78
2018-10-15T04:25:44.715Z,1004.79
2018-10-15T04:26:20.109Z,1004.81
2018-10-15T04:26:55.563Z,1004.80
2018-10-15T04:27:31.280Z,1004.82
2018-10-15T04:28:06.745Z,1004.80
2018-10-15T04:28:42.039Z,1004.82
2018-10-15T04:29:17.172Z,1004.84
2018-10-15T04:29:52.566Z,1004.80
2018-10-15T04:30:27.941Z,1004.86
2018-10-15T04:31:03.137Z,1004.83
2018-10-15T04:31:38.618Z,1004.84
2018-10-15T04:32:13.965Z,1004.85
2018-10-15T04:32:49.104Z,1004.85
2018-10-15T04:33:24.567Z,1004.86
2018-10-15T04:34:00.082Z,1004.83
2018-10-15T04:34:35.434Z,1004.84
2018-10-15T04:35:11.076Z,1004.84
2018-10-15T04:35:46.579Z,1004.82
2018-10-15T04:36:21.959Z,1004.81
2018-10-15T04:36:57.066Z,1004.85
2018-10-15T04:37:32.541Z,1004.87
2018-10-15T04:38:07.689Z,1004.88
2018-10-15T04:38:42.917Z,1004.89
2018-10-15T04:39:18.367Z,1004.83
2018-10-15T04:39:53.685Z,1004.87
2018-10-15T04:40:28.920Z,1004.87
2018-10-15T04:41:04.271Z,1004.87
2018-10-15T04:41:39.645Z,1004.85
2018-10-15T04:42:15.211Z,1004.87
2018-10-15T04:42:50.951Z,1004.84
2018-10-15T04:43:26.616Z,1004.84
2018-10-15T04:44:01.936Z,1004.84
2018-10-15T04:44:37.200Z,1004.82
2018-10-15T04:45:12.738Z,1004.83
2018-10-15T04:45:48.283Z,1004.85
2018-10-15T04:46:23.629Z,1004.82
2018-10-15T04:46:59.162Z,1004.83
2018-10-15T04:47:34.429Z,1004.84
2018-10-15T04:48:09.949Z,1004.84
2018-10-15T04:48:45.442Z,1004.86
2018-10-15T04:49:21.265Z,1004.87
2018-10-15T04:49:56.425Z,1004.88
2018-10-15T04:50:31.890Z,1004.87
2018-10-15T04:51:07.110Z,1004.87
2018-10-15T04:51:42.305Z,1004.88
2018-10-15T04:52:17.781Z,1004.88
2018-10-15T04:52:53.296Z,1004.87
2018-10-15T04:53:28.727Z,1004.92
2018-10-15T04:54:04.143Z,1004.89
2018-10-15T04:54:39.484Z,1004.90
2018-10-15T04:55:15.124Z,1004.90
2018-10-15T04:55:50.237Z,1004.89
2018-10-15T04:56:25.517Z,1004.93
2018-10-15T04:57:00.802Z,1004.94
2018-10-15T04:57:36.331Z,1004.93
2018-10-15T04:58:11.624Z,1004.96
2018-10-15T04:58:47.162Z,1005.01
2018-10-15T04:59:22.741Z,1004.98
2018-10-15T04:59:58.071Z,1005.00
2018-10-15T05:00:33.519Z,1005.00
2018-10-15T05:01:09.028Z,1004.99
2018-10-15T05:01:44.323Z,1005.01
2018-10-15T05:02:19.574Z,1005.01
2018-10-15T05:02:54.885Z,1004.99
2018-10-15T05:03:30.242Z,1004.95
2018-10-15T05:04:05.849Z,1004.95
2018-10-15T05:04:41.493Z,1004.97
2018-10-15T05:05:17.073Z,1004.98
2018-10-15T05:05:52.198Z,1004.96
2018-10-15T05:06:27.891Z,1005.00
2018-10-15T05:07:02.994Z,1004.95
2018-10-15T05:07:38.555Z,1004.98
2018-10-15T05:08:13.877Z,1004.98
2018-10-15T05:08:49.119Z,1005.00
2018-10-15T05:09:24.578Z,1005.02
2018-10-15T05:10:00.214Z,1004.98
2018-10-15T05:10:35.760Z,1005.01
2018-10-15T05:11:10.984Z,1005.00
2018-10-15T05:11:46.458Z,1004.96
2018-10-15T05:12:21.901Z,1004.99
2018-10-15T05:12:57.123Z,1005.00
2018-10-15T05:13:32.476Z,1005.03
2018-10-15T05:14:07.605Z,1005.04
2018-10-15T05:14:42.738Z,1005.03
2018-10-15T05:15:18.145Z,1005.06
2018-10-15T05:15:53.792Z,1005.09
2018-10-15T05:16:29.533Z,1005.09
2018-10-15T05:17:04.741Z,1005.07
2018-10-15T05:17:40.051Z,1005.09
2018-10-15T05:18:15.505Z,1005.09
2018-10-15T05:18:50.696Z,1005.08
2018-10-15T05:19:25.875Z,1005.06
2018-10-15T05:20:01.482Z,1005.06
2018-10-15T05:20:37.003Z,1005.05
2018-10-15T05:21:12.516Z,1005.06
2018-10-15T05:21:47.861Z,1005.08
2018-10-15T05:22:23.365Z,1005.05
2018-10-15T05:22:58.809Z,1005.07
2018-10-15T05:23:34.048Z,1005.06
2018-10-15T05:24:09.285Z,1005.08
2018-10-15T05:24:44.517Z,1005.05
2018-10-15T05:25:19.927Z,1005.05
2018-10-15T05:25:55.680Z,1005.07
2018-10-15T05:26:31.248Z,1005.07
2018-10-15T05:27:06.456Z,1005.08
2018-10-15T05:27:41.914Z,1005.09
2018-10-15T05:28:17.232Z,1005.08
2018-10-15T05:28:53.165Z,1005.10
2018-10-15T05:29:28.615Z,1005.08
2018-10-15T05:30:04.325Z,1005.09
2018-10-15T05:30:39.759Z,1005.10
2018-10-15T05:31:14.917Z,1005.09
2018-10-15T05:31:50.171Z,1005.07
2018-10-15T05:32:25.610Z,1005.09
2018-10-15T05:33:00.856Z,1005.08
2018-10-15T05:33:36.284Z,1005.07
2018-10-15T05:34:11.894Z,1005.08
2018-10-15T05:34:47.321Z,1005.06
2018-10-15T05:35:22.730Z,1005.08
2018-10-15T05:35:58.422Z,1005.11
2018-10-15T05:36:33.984Z,1005.10
2018-10-15T05:37:09.162Z,1005.11
2018-10-15T05:37:44.325Z,1005.10
2018-10-15T05:38:19.739Z,1005.12
2018-10-15T05:38:55.305Z,1005.12
2018-10-15T05:39:31.043Z,1005.13
2018-10-15T05:40:06.586Z,1005.16
2018-10-15T05:40:42.427Z,1005.19
2018-10-15T05:41:17.388Z,1005.20
2018-10-15T05:41:52.866Z,1005.19
2018-10-15T05:42:28.091Z,1005.21
2018-10-15T05:43:03.446Z,1005.18
2018-10-15T05:43:38.894Z,1005.20
2018-10-15T05:44:14.211Z,1005.19
2018-10-15T05:44:49.474Z,1005.19
2018-10-15T05:45:24.828Z,1005.22
2018-10-15T05:46:00.284Z,1005.24
2018-10-15T05:46:36.137Z,1005.26
2018-10-15T05:47:11.311Z,1005.27
2018-10-15T05:47:46.550Z,1005.26
2018-10-15T05:48:22.112Z,1005.28
2018-10-15T05:48:57.713Z,1005.29
2018-10-15T05:49:32.788Z,1005.28
2018-10-15T05:50:08.147Z,1005.30
2018-10-15T05:50:43.378Z,1005.30
2018-10-15T05:51:18.900Z,1005.32
2018-10-15T05:51:54.390Z,1005.30
2018-10-15T05:52:29.903Z,1005.31
2018-10-15T05:53:05.269Z,1005.30
2018-10-15T05:53:40.806Z,1005.31
2018-10-15T05:54:16.102Z,1005.35
2018-10-15T05:54:51.391Z,1005.32
2018-10-15T05:55:26.706Z,1005.35
2018-10-15T05:56:02.451Z,1005.34
2018-10-15T05:56:37.709Z,1005.35
2018-10-15T05:57:12.904Z,1005.34
2018-10-15T05:57:48.144Z,1005.37
2018-10-15T05:58:23.374Z,1005.35
2018-10-15T05:58:59.018Z,1005.39
2018-10-15T05:59:34.372Z,1005.37
2018-10-15T06:00:09.668Z,1005.36
2018-10-15T06:00:45.270Z,1005.36
2018-10-15T06:01:20.834Z,1005.37
2018-10-15T06:01:56.314Z,1005.37
2018-10-15T06:02:31.847Z,1005.37
2018-10-15T06:03:07.172Z,1005.39
2018-10-15T06:03:42.499Z,1005.41
2018-10-15T06:04:17.643Z,1005.38
2018-10-15T06:04:52.911Z,1005.44
2018-10-15T06:05:28.027Z,1005.43
2018-10-15T06:06:03.648Z,1005.47
2018-10-15T06:06:39.025Z,1005.46
2018-10-15T06:07:14.284Z,1005.46
2018-10-15T06:07:49.610Z,1005.51
2018-10-15T06:08:24.951Z,1005.49
2018-10-15T06:09:00.231Z,1005.51
2018-10-15T06:09:35.662Z,1005.53
2018-10-15T06:10:11.300Z,1005.52
2018-10-15T06:10:46.777Z,1005.53
2018-10-15T06:11:22.150Z,1005.53
2018-10-15T06:11:57.434Z,1005.51
2018-10-15T06:12:33.082Z,1005.52
2018-10-15T06:13:08.597Z,1005.49
2018-10-15T06:13:44.166Z,1005.54
2018-10-15T06:14:19.482Z,1005.51
2018-10-15T06:14:54.806Z,1005.55
2018-10-15T06:15:30.217Z,1005.54
2018-10-15T06:16:05.466Z,1005.57
2018-10-15T06:16:40.906Z,1005.59
2018-10-15T06:17:16.525Z,1005.55
2018-10-15T06:17:51.876Z,1005.58
2018-10-15T06:18:27.706Z,1005.58
2018-10-15T06:19:03.090Z,1005.60
2018-10-15T06:19:38.717Z,1005.62
2018-10-15T06:20:14.107Z,1005.62
2018-10-15T06:20:49.629Z,1005.62
2018-10-15T06:21:25.217Z,1005.60
2018-10-15T06:22:01.046Z,1005.64
2018-10-15T06:22:36.558Z,1005.65
2018-10-15T06:23:11.808Z,1005.64
2018-10-15T06:23:47.149Z,1005.63
2018-10-15T06:24:22.436Z,1005.62
2018-10-15T06:24:57.659Z,1005.56
2018-10-15T06:25:32.657Z,1005.63
2018-10-15T06:26:08.009Z,1005.64
2018-10-15T06:26:43.355Z,1005.67
2018-10-15T06:27:18.860Z,1005.64
2018-10-15T06:27:54.102Z,1005.64
2018-10-15T06:28:29.411Z,1005.69
2018-10-15T06:29:04.870Z,1005.70
2018-10-15T06:29:40.285Z,1005.71
2018-10-15T06:30:15.694Z,1005.70
2018-10-15T06:30:51.618Z,1005.71
2018-10-15T06:31:26.981Z,1005.73
2018-10-15T06:32:02.123Z,1005.73
2018-10-15T06:32:37.828Z,1005.74
2018-10-15T06:33:13.470Z,1005.76
2018-10-15T06:33:49.171Z,1005.76
2018-10-15T06:34:24.612Z,1005.78
2018-10-15T06:34:59.859Z,1005.77
2018-10-15T06:35:35.162Z,1005.81
2018-10-15T06:36:10.524Z,1005.83
2018-10-15T06:36:47.546Z,1005.81
2018-10-15T06:37:22.915Z,1005.82
2018-10-15T06:37:58.262Z,1005.82
2018-10-15T06:38:33.516Z,1005.81
2018-10-15T06:39:09.102Z,1005.82
2018-10-15T06:39:44.489Z,1005.79
2018-10-15T06:40:19.941Z,1005.80
2018-10-15T06:40:55.269Z,1005.79
2018-10-15T06:41:31.438Z,1005.82
2018-10-15T06:42:06.713Z,1005.80
2018-10-15T06:42:42.410Z,1005.82
2018-10-15T06:43:17.538Z,1005.80
2018-10-15T06:43:52.767Z,1005.82
2018-10-15T06:44:27.823Z,1005.82
2018-10-15T06:45:03.152Z,1005.82
2018-10-15T06:45:38.474Z,1005.84
2018-10-15T06:46:13.928Z,1005.82
2018-10-15T06:46:49.172Z,1005.79
2018-10-15T06:47:24.648Z,1005.82
2018-10-15T06:47:59.792Z,1005.88
2018-10-15T06:48:35.035Z,1005.82
2018-10-15T06:49:10.409Z,1005.84
2018-10-15T06:49:45.585Z,1005.87
2018-10-15T06:50:20.920Z,1005.89
2018-10-15T06:50:56.347Z,1005.91
2018-10-15T06:51:31.703Z,1005.92
2018-10-15T06:52:07.112Z,1005.88
2018-10-15T06:52:42.600Z,1005.89
2018-10-15T06:53:18.187Z,1005.95
2018-10-15T06:53:53.507Z,1005.95
2018-10-15T06:54:28.746Z,1005.97
2018-10-15T06:55:04.135Z,1005.95
2018-10-15T06:55:39.380Z,1005.98
2018-10-15T06:56:15.143Z,1005.98
2018-10-15T06:56:50.292Z,1005.99
2018-10-15T06:57:25.624Z,1005.99
2018-10-15T06:58:01.034Z,1005.99
2018-10-15T06:58:36.572Z,1006.01
2018-10-15T06:59:11.937Z,1005.98
2018-10-15T06:59:47.416Z,1006.00
2018-10-15T07:00:22.673Z,1006.04
2018-10-15T07:00:57.977Z,1006.03
2018-10-15T07:01:33.456Z,1006.04
2018-10-15T07:02:08.850Z,1006.06
2018-10-15T07:02:44.276Z,1006.09
2018-10-15T07:03:20.091Z,1006.10
2018-10-15T07:03:55.333Z,1006.10
2018-10-15T07:04:30.781Z,1006.13
2018-10-15T07:05:06.009Z,1006.09
2018-10-15T07:05:41.421Z,1006.09
2018-10-15T07:06:17.251Z,1006.12
2018-10-15T07:06:52.611Z,1006.11
2018-10-15T07:07:28.071Z,1006.13
2018-10-15T07:08:03.167Z,1006.16